Time;durP1;ratioP1;P1;durP2;ratioP2;P2;SDS_P1;SDS_P2;PMS_P1;PMS_P2;Temp;Humidity;BMP_temperature;BMP_pressure;BME280_temperature;BME280_humidity;BME280_pressure;Samples;Min_cycle;Max_cycle;Signal;HPM_P1;HPM_P2
2021/12/09 00:00:37;;;;;;;21.37;15.73;;;4.20;99.90;;;;;;5047201;28;20074;-62
2021/12/09 00:03:07;;;;;;;21.80;16.33;;;4.10;99.90;;;;;;5055358;28;20023;-62
2021/12/09 00:05:35;;;;;;;24.03;16.30;;;4.10;99.90;;;;;;5055920;28;20040;-62
2021/12/09 00:08:02;;;;;;;20.03;15.53;;;4.20;99.90;;;;;;5058458;28;20096;-62
2021/12/09 00:10:28;;;;;;;22.60;15.83;;;4.20;99.90;;;;;;5045977;28;20033;-62
2021/12/09 00:12:53;;;;;;;21.33;16.07;;;4.30;99.90;;;;;;5035358;28;20048;-62
2021/12/09 00:15:19;;;;;;;20.43;15.27;;;4.30;99.90;;;;;;5048015;28;20074;-62
2021/12/09 00:17:45;;;;;;;18.90;14.13;;;4.20;99.90;;;;;;5037266;28;20073;-62
2021/12/09 00:20:10;;;;;;;21.53;15.47;;;4.30;99.90;;;;;;5044285;28;20120;-62
2021/12/09 00:22:36;;;;;;;18.83;13.83;;;4.50;99.90;;;;;;5032806;28;20032;-63
2021/12/09 00:25:02;;;;;;;19.47;14.33;;;4.40;99.90;;;;;;5042766;28;20026;-62
2021/12/09 00:27:28;;;;;;;19.73;14.43;;;4.50;99.90;;;;;;5048862;28;20523;-62
2021/12/09 00:29:53;;;;;;;19.80;14.10;;;4.30;99.90;;;;;;5049406;28;20033;-62
2021/12/09 00:32:20;;;;;;;19.70;15.43;;;4.20;99.90;;;;;;5054758;28;20020;-63
2021/12/09 00:34:48;;;;;;;21.27;15.23;;;4.20;99.90;;;;;;5053832;28;20025;-63
2021/12/09 00:39:49;;;;;;;18.37;14.03;;;4.10;99.90;;;;;;5053399;28;20037;-63
2021/12/09 00:42:16;;;;;;;19.93;14.83;;;4.20;99.90;;;;;;5053248;28;20036;-63
2021/12/09 00:44:41;;;;;;;21.50;15.10;;;4.10;99.90;;;;;;5048367;28;20034;-62
2021/12/09 00:47:07;;;;;;;21.87;15.40;;;4.00;99.90;;;;;;5040589;28;20459;-63
2021/12/09 00:49:33;;;;;;;19.90;14.93;;;4.00;99.90;;;;;;5049449;28;20108;-62
2021/12/09 00:51:59;;;;;;;20.23;14.63;;;4.10;99.90;;;;;;5049646;28;20065;-63
2021/12/09 00:54:25;;;;;;;21.47;15.77;;;3.90;99.90;;;;;;5052872;28;20029;-62
2021/12/09 00:56:51;;;;;;;23.63;15.60;;;4.00;99.90;;;;;;5053801;28;20029;-62
2021/12/09 00:59:17;;;;;;;22.57;16.23;;;4.10;99.90;;;;;;5052009;28;20029;-62
2021/12/09 01:01:43;;;;;;;24.20;16.90;;;4.10;99.90;;;;;;5053882;28;20060;-62
2021/12/09 01:04:08;;;;;;;23.93;17.03;;;4.10;99.90;;;;;;5042392;28;20451;-62
2021/12/09 01:06:34;;;;;;;25.63;18.30;;;4.10;99.90;;;;;;5054205;28;20029;-62
2021/12/09 01:09:00;;;;;;;28.70;19.00;;;4.10;99.90;;;;;;5063123;28;20025;-63
2021/12/09 01:11:25;;;;;;;27.83;20.33;;;4.10;99.90;;;;;;5053568;28;20379;-62
2021/12/09 01:13:51;;;;;;;30.93;20.30;;;4.20;99.90;;;;;;5053361;28;20509;-62
2021/12/09 01:16:17;;;;;;;29.50;20.23;;;4.10;99.90;;;;;;5034745;28;20136;-63
2021/12/09 01:18:42;;;;;;;32.07;21.37;;;4.00;99.90;;;;;;5041040;28;20107;-63
2021/12/09 01:21:09;;;;;;;30.40;21.00;;;4.10;99.90;;;;;;5052662;28;20053;-63
2021/12/09 01:23:35;;;;;;;31.83;20.93;;;4.20;99.90;;;;;;5053109;28;20079;-63
2021/12/09 01:26:03;;;;;;;34.00;22.77;;;4.10;99.90;;;;;;5052509;28;20024;-62
2021/12/09 01:28:36;;;;;;;32.80;22.27;;;4.10;99.90;;;;;;5050943;28;20486;-63
2021/12/09 01:31:05;;;;;;;34.60;22.60;;;4.10;99.90;;;;;;5051045;28;20036;-63
2021/12/09 01:33:34;;;;;;;36.20;22.80;;;4.20;99.90;;;;;;5042048;28;20383;-63
2021/12/09 01:36:04;;;;;;;35.60;23.37;;;4.20;99.90;;;;;;5048448;28;20529;-63
2021/12/09 01:38:32;;;;;;;37.37;24.83;;;4.20;99.90;;;;;;5055390;28;20111;-63
2021/12/09 01:40:59;;;;;;;44.77;26.57;;;4.30;99.90;;;;;;5051137;28;20422;-62
2021/12/09 01:43:25;;;;;;;44.67;28.30;;;4.20;99.90;;;;;;5043076;28;20093;-63
2021/12/09 01:46:09;;;;;;;48.67;29.17;;;4.30;99.90;;;;;;5045102;28;20453;-62
2021/12/09 01:48:36;;;;;;;46.83;28.93;;;4.30;99.90;;;;;;5052859;28;20059;-63
2021/12/09 01:51:02;;;;;;;52.17;30.30;;;4.30;99.90;;;;;;5051485;28;20490;-62
2021/12/09 01:53:28;;;;;;;50.83;30.80;;;4.20;99.90;;;;;;5051884;28;20032;-62
2021/12/09 01:55:56;;;;;;;51.30;31.13;;;4.30;99.90;;;;;;5051303;28;20047;-62
2021/12/09 01:58:22;;;;;;;53.10;31.37;;;4.30;99.90;;;;;;5050121;28;20038;-63
2021/12/09 02:00:48;;;;;;;47.83;30.20;;;4.30;99.90;;;;;;5041517;28;20041;-62
2021/12/09 02:03:14;;;;;;;44.53;28.23;;;4.20;99.90;;;;;;5045990;28;20029;-63
2021/12/09 02:05:41;;;;;;;40.47;27.73;;;4.20;99.90;;;;;;5050946;28;20028;-62
2021/12/09 02:08:25;;;;;;;41.23;26.40;;;4.20;99.90;;;;;;5049156;28;20032;-63
2021/12/09 02:10:51;;;;;;;38.28;25.75;;;4.30;99.90;;;;;;5049368;28;20029;-62
2021/12/09 02:13:19;;;;;;;39.43;25.43;;;4.40;99.90;;;;;;5051673;28;20021;-62
2021/12/09 02:15:46;;;;;;;40.67;26.73;;;4.30;99.90;;;;;;5051302;28;20025;-62
2021/12/09 02:18:13;;;;;;;42.80;26.63;;;4.30;99.90;;;;;;5042835;28;20104;-62
2021/12/09 02:20:40;;;;;;;41.60;28.83;;;4.20;99.90;;;;;;5049892;28;20407;-62
2021/12/09 02:23:10;;;;;;;48.40;31.10;;;4.30;99.90;;;;;;5052606;28;20013;-62
2021/12/09 02:25:38;;;;;;;54.47;34.10;;;4.30;99.90;;;;;;5050515;28;20490;-62
2021/12/09 02:28:09;;;;;;;49.50;30.53;;;4.20;99.90;;;;;;5043051;28;20116;-63
2021/12/09 02:30:34;;;;;;;51.13;31.97;;;4.30;99.90;;;;;;5050673;28;20494;-62
2021/12/09 02:33:00;;;;;;;44.07;29.33;;;4.30;99.90;;;;;;5051054;28;20052;-62
2021/12/09 02:35:26;;;;;;;47.73;30.07;;;4.30;99.90;;;;;;5051584;28;20104;-62
2021/12/09 02:37:52;;;;;;;42.17;27.97;;;4.30;99.90;;;;;;5052576;28;20380;-63
2021/12/09 02:40:18;;;;;;;40.67;27.40;;;4.30;99.90;;;;;;5056902;28;20099;-62
2021/12/09 02:42:43;;;;;;;47.50;28.80;;;4.40;99.90;;;;;;5054100;28;20066;-62
2021/12/09 02:45:10;;;;;;;45.37;28.67;;;4.30;99.90;;;;;;5047416;28;20033;-62
2021/12/09 02:47:37;;;;;;;42.57;28.27;;;4.20;99.90;;;;;;5056348;28;20037;-62
2021/12/09 02:50:04;;;;;;;41.80;27.67;;;4.20;99.90;;;;;;5048032;28;20029;-63
2021/12/09 02:52:30;;;;;;;42.90;27.80;;;4.20;99.90;;;;;;5052773;28;20033;-62
2021/12/09 02:54:58;;;;;;;45.93;29.30;;;4.30;99.90;;;;;;5055509;28;20314;-61
2021/12/09 02:57:24;;;;;;;47.47;29.57;;;4.20;99.90;;;;;;5054480;28;20052;-62
2021/12/09 02:59:49;;;;;;;44.83;28.43;;;4.20;99.90;;;;;;5051326;28;20043;-62
2021/12/09 03:02:15;;;;;;;46.50;28.67;;;4.20;99.90;;;;;;5041589;28;20029;-62
2021/12/09 03:04:48;;;;;;;47.07;28.70;;;4.30;99.90;;;;;;5055259;28;20060;-62
2021/12/09 03:07:28;;;;;;;45.67;29.07;;;4.20;99.90;;;;;;5036608;28;20493;-62
2021/12/09 03:09:59;;;;;;;45.83;26.70;;;4.10;99.90;;;;;;5038129;28;20068;-62
2021/12/09 03:12:32;;;;;;;46.53;28.47;;;4.20;99.90;;;;;;5051307;28;20486;-62
2021/12/09 03:14:59;;;;;;;43.40;27.67;;;4.30;99.90;;;;;;5036457;28;20087;-62
2021/12/09 03:17:25;;;;;;;38.83;25.73;;;4.10;99.90;;;;;;5035171;28;20464;-62
2021/12/09 03:19:51;;;;;;;46.80;28.57;;;4.20;99.90;;;;;;5036369;28;20107;-62
2021/12/09 03:22:18;;;;;;;46.87;28.23;;;4.20;99.90;;;;;;5074715;28;20036;-62
2021/12/09 03:24:44;;;;;;;43.20;27.67;;;4.30;99.90;;;;;;5063647;28;20033;-62
2021/12/09 03:27:10;;;;;;;41.87;28.33;;;4.30;99.90;;;;;;5053850;28;20120;-62
2021/12/09 03:29:36;;;;;;;42.27;27.63;;;4.20;99.90;;;;;;5054851;28;20075;-62
2021/12/09 03:32:05;;;;;;;39.57;26.67;;;4.20;99.90;;;;;;5056397;28;20029;-62
2021/12/09 03:34:34;;;;;;;43.47;28.17;;;4.10;99.90;;;;;;5051824;28;20384;-62
2021/12/09 03:37:03;;;;;;;41.13;27.17;;;4.20;99.90;;;;;;5055565;28;20491;-62
2021/12/09 03:39:34;;;;;;;44.70;28.50;;;4.20;99.90;;;;;;5052757;28;20048;-62
2021/12/09 03:42:03;;;;;;;42.30;28.90;;;4.30;99.90;;;;;;5053133;28;20036;-62
2021/12/09 03:44:29;;;;;;;43.20;27.73;;;4.20;99.90;;;;;;5052585;28;20410;-62
2021/12/09 03:46:59;;;;;;;47.13;29.37;;;4.30;99.90;;;;;;5048950;28;20075;-62
2021/12/09 03:49:25;;;;;;;47.50;29.57;;;4.20;99.90;;;;;;5054434;28;20032;-63
2021/12/09 03:51:52;;;;;;;42.33;28.70;;;4.20;99.90;;;;;;5054051;28;20029;-62
2021/12/09 03:54:19;;;;;;;46.73;29.90;;;4.20;99.90;;;;;;5051584;28;20022;-62
2021/12/09 03:56:46;;;;;;;45.50;29.93;;;4.30;99.90;;;;;;5039237;28;20033;-63
2021/12/09 03:59:13;;;;;;;47.07;29.63;;;4.20;99.90;;;;;;5054062;28;20108;-62
2021/12/09 04:01:40;;;;;;;42.87;28.87;;;4.20;99.90;;;;;;5063393;28;20044;-63
2021/12/09 04:04:07;;;;;;;46.40;30.23;;;4.20;99.90;;;;;;5052488;28;20523;-63
2021/12/09 04:06:34;;;;;;;50.93;32.90;;;4.20;99.90;;;;;;5053814;28;20114;-63
2021/12/09 04:09:10;;;;;;;50.37;31.50;;;4.20;99.90;;;;;;5050433;28;20033;-63
2021/12/09 04:11:36;;;;;;;48.50;30.90;;;4.40;99.90;;;;;;5042775;28;20069;-63
2021/12/09 04:14:03;;;;;;;59.47;35.43;;;4.10;99.90;;;;;;5042969;28;20079;-63
2021/12/09 04:16:29;;;;;;;49.90;31.90;;;4.10;99.90;;;;;;5042825;28;20026;-63
2021/12/09 04:18:55;;;;;;;59.07;34.13;;;4.10;99.90;;;;;;5047270;28;20043;-62
2021/12/09 04:21:21;;;;;;;54.17;33.77;;;4.10;99.90;;;;;;5049869;28;20084;-63
2021/12/09 04:23:47;;;;;;;52.60;32.77;;;4.10;99.90;;;;;;5055982;28;20049;-63
2021/12/09 04:26:12;;;;;;;47.90;32.73;;;4.10;99.90;;;;;;5047859;28;20047;-63
2021/12/09 04:28:39;;;;;;;49.57;30.97;;;4.20;99.90;;;;;;5053017;28;20024;-63
2021/12/09 04:31:05;;;;;;;53.37;33.13;;;4.10;99.90;;;;;;5055924;28;20112;-63
2021/12/09 04:33:32;;;;;;;54.30;33.53;;;4.10;99.90;;;;;;5053405;28;20025;-63
2021/12/09 04:35:58;;;;;;;52.53;33.13;;;4.10;99.90;;;;;;5049537;28;20510;-63
2021/12/09 04:38:24;;;;;;;51.23;33.40;;;4.10;99.90;;;;;;5053670;28;20028;-63
2021/12/09 04:40:50;;;;;;;52.40;32.87;;;4.00;99.90;;;;;;5053299;28;20478;-63
2021/12/09 04:43:16;;;;;;;59.50;35.93;;;4.00;99.90;;;;;;5054353;28;20027;-62
2021/12/09 04:45:42;;;;;;;60.43;35.73;;;4.10;99.90;;;;;;5051540;28;20111;-62
2021/12/09 04:48:08;;;;;;;61.17;36.43;;;4.10;99.90;;;;;;5054097;28;20364;-62
2021/12/09 04:50:36;;;;;;;58.57;36.60;;;4.00;99.90;;;;;;5053052;28;20037;-62
2021/12/09 04:53:03;;;;;;;61.43;35.67;;;4.20;99.90;;;;;;5053926;28;20475;-63
2021/12/09 04:55:29;;;;;;;60.70;34.70;;;4.30;99.90;;;;;;5049999;28;20494;-63
2021/12/09 04:57:55;;;;;;;55.90;35.00;;;4.20;99.90;;;;;;5053605;28;20057;-62
2021/12/09 05:00:25;;;;;;;52.37;33.17;;;4.20;99.90;;;;;;5057343;28;20467;-62
2021/12/09 05:03:12;;;;;;;50.90;31.43;;;4.20;99.90;;;;;;5048093;28;20033;-63
2021/12/09 05:05:52;;;;;;;55.30;31.80;;;4.10;99.90;;;;;;5038337;28;20021;-62
2021/12/09 05:08:22;;;;;;;49.73;31.27;;;4.20;99.90;;;;;;5055403;28;20364;-62
2021/12/09 05:13:28;;;;;;;49.53;31.00;;;4.10;99.90;;;;;;5047546;28;20029;-62
2021/12/09 05:15:55;;;;;;;53.00;31.53;;;4.20;99.90;;;;;;5040590;28;20083;-62
2021/12/09 05:18:22;;;;;;;53.83;32.00;;;4.10;99.90;;;;;;5054233;28;20449;-62
2021/12/09 05:20:49;;;;;;;57.07;34.10;;;4.20;99.90;;;;;;5052453;28;20094;-63
2021/12/09 05:23:16;;;;;;;53.70;33.07;;;4.30;99.90;;;;;;5053647;28;20025;-62
2021/12/09 05:25:43;;;;;;;58.67;33.90;;;4.20;99.90;;;;;;5052579;28;20036;-63
2021/12/09 05:28:10;;;;;;;62.70;36.47;;;4.30;99.90;;;;;;5052199;28;20020;-63
2021/12/09 05:32:07;;;;;;;56.33;33.57;;;4.30;99.90;;;;;;5051636;28;20104;-62
2021/12/09 05:33:25;;;;;;;56.13;32.47;;;4.30;99.90;;;;;;5052806;28;20491;-62
2021/12/09 05:35:51;;;;;;;52.73;31.73;;;4.30;99.90;;;;;;5052117;28;20033;-62
2021/12/09 05:39:00;;;;;;;52.93;30.77;;;4.10;99.90;;;;;;5054169;28;20417;-63
2021/12/09 05:41:26;;;;;;;54.57;31.90;;;4.20;99.90;;;;;;5052470;28;20045;-63
2021/12/09 05:43:52;;;;;;;52.97;32.10;;;4.30;99.90;;;;;;5051451;28;20443;-63
2021/12/09 05:46:41;;;;;;;49.77;30.47;;;4.20;99.90;;;;;;5051982;28;20029;-63
2021/12/09 05:49:07;;;;;;;51.50;31.20;;;4.20;99.90;;;;;;5052420;28;20028;-63
2021/12/09 05:51:44;;;;;;;48.70;29.47;;;4.00;99.90;;;;;;5057659;28;20009;-63
2021/12/09 05:54:10;;;;;;;58.37;33.23;;;4.00;99.90;;;;;;5048269;28;20040;-63
2021/12/09 05:56:36;;;;;;;58.40;33.07;;;3.80;99.90;;;;;;5050212;28;20461;-63
2021/12/09 05:59:03;;;;;;;61.70;35.40;;;3.90;99.90;;;;;;5051961;28;20033;-63
2021/12/09 06:01:28;;;;;;;64.10;35.77;;;4.10;99.90;;;;;;5051691;28;20033;-63
2021/12/09 06:03:54;;;;;;;63.20;33.93;;;4.10;99.90;;;;;;5051269;28;20474;-63
2021/12/09 06:06:20;;;;;;;66.67;38.07;;;4.20;99.90;;;;;;5051046;28;20148;-63
2021/12/09 06:08:46;;;;;;;70.77;35.97;;;4.00;99.90;;;;;;5051805;28;20139;-63
2021/12/09 06:11:12;;;;;;;60.50;33.53;;;4.00;99.90;;;;;;5050091;28;20486;-63
2021/12/09 06:13:39;;;;;;;66.20;36.83;;;4.00;99.90;;;;;;5052490;28;20039;-62
2021/12/09 06:16:09;;;;;;;69.90;36.47;;;4.20;99.90;;;;;;5051244;28;20356;-63
2021/12/09 06:18:35;;;;;;;62.97;35.93;;;4.20;99.90;;;;;;5052207;28;20115;-63
2021/12/09 06:21:01;;;;;;;72.17;37.30;;;4.20;99.90;;;;;;5051531;28;20053;-63
2021/12/09 06:23:46;;;;;;;69.53;35.67;;;4.30;99.90;;;;;;5049130;28;20437;-63
2021/12/09 06:26:12;;;;;;;;;;;4.30;99.90;;;;;;5050560;28;20033;-63
2021/12/09 06:28:38;;;;;;;56.93;31.53;;;4.10;99.90;;;;;;5052375;28;19909;-63
2021/12/09 06:31:05;;;;;;;62.43;33.80;;;4.00;99.90;;;;;;5052147;28;20449;-63
2021/12/09 06:33:31;;;;;;;62.57;34.77;;;4.10;99.90;;;;;;5045373;28;20470;-63
2021/12/09 06:35:57;;;;;;;71.67;34.07;;;4.20;99.90;;;;;;5049622;28;20371;-63
2021/12/09 06:38:45;;;;;;;61.90;34.60;;;4.30;99.90;;;;;;5038423;28;20056;-62
2021/12/09 06:41:26;;;;;;;64.20;35.13;;;4.20;99.90;;;;;;5043357;28;20040;-63
2021/12/09 06:43:51;;;;;;;62.50;34.27;;;4.20;99.90;;;;;;5051530;28;20490;-63
2021/12/09 06:46:17;;;;;;;66.10;35.33;;;4.20;99.90;;;;;;5048675;28;20052;-63
2021/12/09 06:48:43;;;;;;;68.87;36.90;;;4.30;99.90;;;;;;5048805;28;20030;-65
2021/12/09 06:51:09;;;;;;;71.13;37.40;;;4.10;99.90;;;;;;5035596;28;20048;-63
2021/12/09 06:53:38;;;;;;;71.83;37.57;;;4.10;99.90;;;;;;5036886;28;20395;-62
2021/12/09 06:56:05;;;;;;;71.80;36.83;;;4.30;99.90;;;;;;5047267;28;20044;-63
2021/12/09 06:58:31;;;;;;;70.60;36.97;;;4.40;99.90;;;;;;5043340;28;20478;-63
2021/12/09 07:01:05;;;;;;;63.93;35.17;;;4.40;99.90;;;;;;5041085;28;20036;-63
2021/12/09 07:03:32;;;;;;;62.25;35.05;;;4.50;99.90;;;;;;5051722;28;20066;-63
2021/12/09 07:06:04;;;;;;;60.77;35.07;;;4.50;99.90;;;;;;5051365;28;20032;-63
2021/12/09 07:08:30;;;;;;;61.33;34.67;;;4.50;99.90;;;;;;5055450;28;20473;-63
2021/12/09 07:10:56;;;;;;;61.67;34.20;;;4.60;99.90;;;;;;5045917;28;20029;-63
2021/12/09 07:13:22;;;;;;;66.43;34.23;;;4.60;99.90;;;;;;5054772;28;20032;-63
2021/12/09 07:15:48;;;;;;;61.50;35.43;;;4.40;99.90;;;;;;5064120;28;20063;-63
2021/12/09 07:18:13;;;;;;;59.47;32.50;;;4.40;99.90;;;;;;5047373;28;20033;-63
2021/12/09 07:20:39;;;;;;;66.10;34.70;;;4.40;99.90;;;;;;5057636;28;20106;-63
2021/12/09 07:23:05;;;;;;;61.07;34.80;;;4.60;99.90;;;;;;5049517;28;20029;-63
2021/12/09 07:25:30;;;;;;;55.33;32.13;;;4.40;99.90;;;;;;5042750;28;20038;-64
2021/12/09 07:27:57;;;;;;;59.03;32.83;;;4.30;99.90;;;;;;5042246;28;20451;-63
2021/12/09 07:30:24;;;;;;;50.40;28.30;;;4.30;99.90;;;;;;5052087;28;20033;-63
2021/12/09 07:32:50;;;;;;;52.53;29.87;;;4.20;99.90;;;;;;5050363;28;20108;-63
2021/12/09 07:35:17;;;;;;;56.80;30.03;;;4.30;99.90;;;;;;5042527;28;20105;-63
2021/12/09 07:37:43;;;;;;;55.17;29.83;;;4.30;99.90;;;;;;5038934;28;20112;-63
2021/12/09 07:40:14;;;;;;;57.63;29.03;;;4.40;99.90;;;;;;5036921;28;20038;-63
2021/12/09 07:42:40;;;;;;;59.43;31.53;;;4.40;99.90;;;;;;5055209;28;20025;-63
2021/12/09 07:45:08;;;;;;;56.13;30.87;;;4.30;99.90;;;;;;5053651;28;20025;-61
2021/12/09 07:47:34;;;;;;;61.20;32.77;;;4.30;99.90;;;;;;5054246;28;20359;-62
2021/12/09 07:50:00;;;;;;;57.60;30.80;;;4.40;99.90;;;;;;5052023;28;20064;-63
2021/12/09 07:52:25;;;;;;;57.27;31.63;;;4.50;99.90;;;;;;5047252;28;20030;-60
2021/12/09 07:54:51;;;;;;;55.47;32.67;;;4.20;99.90;;;;;;5045618;28;20036;-61
2021/12/09 07:57:17;;;;;;;55.93;29.53;;;4.30;99.90;;;;;;5045196;28;20021;-61
2021/12/09 07:59:42;;;;;;;60.63;31.17;;;4.40;99.90;;;;;;5054328;28;20137;-62
2021/12/09 08:02:09;;;;;;;63.23;30.87;;;4.30;99.90;;;;;;5046979;28;20034;-61
2021/12/09 08:04:36;;;;;;;62.40;31.80;;;4.30;99.90;;;;;;5040227;28;20479;-63
2021/12/09 08:07:02;;;;;;;56.43;29.53;;;4.50;99.90;;;;;;5052453;28;20035;-63
2021/12/09 08:09:27;;;;;;;58.97;30.57;;;4.40;99.90;;;;;;5048258;28;20029;-63
2021/12/09 08:11:53;;;;;;;64.87;31.13;;;4.40;99.90;;;;;;5049018;28;20073;-60
2021/12/09 08:14:19;;;;;;;62.03;32.17;;;4.40;99.90;;;;;;5049478;28;20032;-61
2021/12/09 08:16:55;;;;;;;53.43;29.50;;;4.30;99.90;;;;;;5048313;28;20112;-61
2021/12/09 08:19:21;;;;;;;53.00;29.20;;;4.50;99.90;;;;;;5049244;28;20040;-61
2021/12/09 08:21:47;;;;;;;54.13;28.33;;;4.30;99.90;;;;;;5047549;28;20041;-61
2021/12/09 08:24:12;;;;;;;56.77;30.07;;;4.20;99.90;;;;;;5045602;28;20393;-61
2021/12/09 08:26:38;;;;;;;57.30;29.90;;;4.30;99.90;;;;;;5048802;28;20029;-61
2021/12/09 08:29:05;;;;;;;58.73;31.70;;;4.30;99.90;;;;;;5041548;28;20030;-62
2021/12/09 08:31:33;;;;;;;61.67;30.83;;;4.60;99.90;;;;;;5049213;28;20033;-61
2021/12/09 08:34:00;;;;;;;57.83;31.37;;;4.60;99.90;;;;;;5049072;28;20047;-61
2021/12/09 08:36:26;;;;;;;58.37;30.90;;;4.50;99.90;;;;;;5042830;28;20032;-61
2021/12/09 08:38:52;;;;;;;54.70;30.23;;;4.40;99.90;;;;;;5053033;28;20025;-61
2021/12/09 08:41:19;;;;;;;54.10;31.03;;;4.70;99.90;;;;;;5051514;28;20041;-61
2021/12/09 08:43:46;;;;;;;55.03;29.47;;;4.40;99.90;;;;;;5049733;28;20487;-61
2021/12/09 08:46:15;;;;;;;52.43;28.03;;;4.40;99.90;;;;;;5046256;28;20041;-61
2021/12/09 08:48:40;;;;;;;45.87;26.90;;;4.30;99.90;;;;;;5045772;28;20044;-61
2021/12/09 08:51:06;;;;;;;48.97;27.80;;;4.30;99.90;;;;;;5047216;28;20108;-61
2021/12/09 08:53:34;;;;;;;45.27;25.80;;;4.40;99.90;;;;;;5047137;28;20473;-61
2021/12/09 08:56:00;;;;;;;44.70;24.10;;;4.40;99.90;;;;;;5048060;28;20029;-61
2021/12/09 08:58:28;;;;;;;50.37;25.37;;;4.30;99.90;;;;;;5047067;28;20045;-61
2021/12/09 09:00:57;;;;;;;50.70;26.40;;;4.40;99.90;;;;;;5049275;28;20041;-61
2021/12/09 09:03:23;;;;;;;45.37;26.43;;;4.30;99.90;;;;;;5050699;28;20378;-61
2021/12/09 09:05:49;;;;;;;53.43;27.03;;;4.40;99.90;;;;;;5053298;28;20037;-61
2021/12/09 09:08:15;;;;;;;47.20;26.83;;;4.60;99.90;;;;;;5048411;28;20029;-61
2021/12/09 09:10:43;;;;;;;48.77;27.37;;;4.50;99.90;;;;;;5051512;28;20094;-61
2021/12/09 09:13:11;;;;;;;44.10;26.23;;;4.40;99.90;;;;;;5048460;28;20037;-61
2021/12/09 09:15:38;;;;;;;49.33;27.17;;;4.50;99.90;;;;;;5043770;28;20033;-61
2021/12/09 09:18:04;;;;;;;50.03;27.83;;;4.40;99.90;;;;;;5050478;28;20060;-62
2021/12/09 09:20:37;;;;;;;52.57;27.77;;;4.40;99.90;;;;;;5053017;28;20050;-61
2021/12/09 09:23:13;;;;;;;49.50;27.53;;;4.40;99.90;;;;;;5048328;28;20029;-61
2021/12/09 09:25:40;;;;;;;51.03;25.53;;;4.40;99.90;;;;;;5052862;28;20024;-61
2021/12/09 09:28:07;;;;;;;55.63;29.53;;;4.40;99.90;;;;;;5039689;28;20020;-61
2021/12/09 09:30:36;;;;;;;51.10;28.10;;;4.40;99.90;;;;;;5042197;28;20402;-63
2021/12/09 09:33:13;;;;;;;51.83;25.47;;;4.00;99.90;;;;;;5044096;28;20079;-60
2021/12/09 09:35:40;;;;;;;52.33;26.63;;;4.10;99.90;;;;;;5049724;28;20098;-61
2021/12/09 09:38:06;;;;;;;58.20;28.30;;;4.00;99.90;;;;;;5051519;28;20029;-61
2021/12/09 09:40:50;;;;;;;56.90;28.03;;;4.00;99.90;;;;;;5045963;28;20075;-62
2021/12/09 09:43:32;;;;;;;57.93;29.57;;;4.00;99.90;;;;;;5048978;28;20017;-62
2021/12/09 09:46:04;;;;;;;52.37;27.33;;;4.10;99.90;;;;;;5044913;28;20060;-62
2021/12/09 09:48:30;;;;;;;54.80;27.00;;;4.10;99.90;;;;;;5050353;28;20487;-62
2021/12/09 09:50:56;;;;;;;49.50;26.10;;;4.40;99.90;;;;;;5044302;28;20036;-62
2021/12/09 09:53:22;;;;;;;52.40;26.50;;;4.20;99.90;;;;;;5050473;28;20032;-62
2021/12/09 09:55:48;;;;;;;53.20;27.20;;;4.30;99.90;;;;;;5048712;28;20033;-62
2021/12/09 09:58:16;;;;;;;61.17;26.20;;;4.50;99.90;;;;;;5043241;28;20550;-62
2021/12/09 10:00:42;;;;;;;54.00;27.47;;;4.30;99.90;;;;;;5040760;28;20051;-61
2021/12/09 10:03:16;;;;;;;52.67;26.77;;;4.50;99.90;;;;;;5044528;28;20032;-62
2021/12/09 10:05:44;;;;;;;56.43;27.37;;;4.70;99.90;;;;;;5052684;28;20065;-62
2021/12/09 10:08:13;;;;;;;59.57;27.47;;;4.70;99.90;;;;;;5046710;28;20031;-62
2021/12/09 10:10:43;;;;;;;50.10;26.47;;;4.50;99.90;;;;;;5049719;28;20025;-62
2021/12/09 10:13:10;;;;;;;49.90;26.37;;;4.50;99.90;;;;;;5045424;28;20025;-62
2021/12/09 10:15:48;;;;;;;54.17;27.07;;;4.80;99.90;;;;;;5040700;28;20029;-61
2021/12/09 10:18:36;;;;;;;48.20;24.83;;;4.70;99.90;;;;;;5046941;28;20095;-62
2021/12/09 10:21:04;;;;;;;49.70;25.93;;;4.80;99.90;;;;;;5048836;28;20089;-62
2021/12/09 10:23:31;;;;;;;42.70;23.97;;;5.00;99.90;;;;;;5047078;28;20542;-62
2021/12/09 10:26:15;;;;;;;38.70;23.53;;;4.80;97.10;;;;;;5045267;28;20434;-62
2021/12/09 10:28:52;;;;;;;50.70;25.87;;;4.90;97.90;;;;;;5040617;28;20080;-63
2021/12/09 10:31:21;;;;;;;41.97;25.37;;;4.70;98.90;;;;;;5049826;28;20027;-62
2021/12/09 10:34:00;;;;;;;37.53;22.40;;;4.80;96.90;;;;;;5041275;28;20033;-62
2021/12/09 10:36:47;;;;;;;46.20;24.53;;;4.60;95.60;;;;;;5047450;28;20438;-62
2021/12/09 10:39:20;;;;;;;44.63;24.73;;;4.60;96.60;;;;;;5048219;28;20060;-61
2021/12/09 10:41:47;;;;;;;42.57;24.13;;;4.60;96.30;;;;;;5048766;28;20483;-61
2021/12/09 10:44:13;;;;;;;41.40;24.17;;;4.80;96.10;;;;;;5044904;28;20025;-62
2021/12/09 10:46:54;;;;;;;42.90;24.80;;;4.80;95.80;;;;;;5042551;28;20046;-61
2021/12/09 10:49:20;;;;;;;46.50;24.03;;;4.90;94.60;;;;;;5045613;28;20593;-61
2021/12/09 10:51:58;;;;;;;35.33;22.07;;;5.10;95.60;;;;;;5048903;28;20017;-62
2021/12/09 10:54:35;;;;;;;39.60;22.07;;;5.10;89.30;;;;;;5049259;28;20059;-61
2021/12/09 10:57:31;;;;;;;39.57;23.10;;;5.20;90.00;;;;;;5043652;28;20036;-62
2021/12/09 11:00:12;;;;;;;40.63;22.27;;;5.10;92.60;;;;;;5048050;28;20029;-61
2021/12/09 11:02:55;;;;;;;44.13;23.53;;;5.40;92.50;;;;;;5044989;28;20041;-62
2021/12/09 11:05:20;;;;;;;40.63;22.87;;;5.50;86.40;;;;;;5037977;28;20539;-62
2021/12/09 11:07:46;;;;;;;39.83;22.60;;;5.20;85.10;;;;;;5050010;28;20060;-61
2021/12/09 11:10:22;;;;;;;42.13;23.63;;;5.10;88.20;;;;;;5053098;28;20029;-62
2021/12/09 11:12:56;;;;;;;41.30;22.53;;;5.30;87.80;;;;;;5056786;28;20418;-62
2021/12/09 11:15:44;;;;;;;44.15;24.20;;;5.30;87.30;;;;;;5050287;28;20055;-62
2021/12/09 11:18:37;;;;;;;42.00;23.87;;;5.30;88.00;;;;;;5046140;28;20022;-62
2021/12/09 11:21:20;;;;;;;46.50;25.77;;;5.20;87.50;;;;;;5045497;28;20068;-62
2021/12/09 11:23:52;;;;;;;47.60;25.73;;;5.20;88.60;;;;;;5051362;28;20032;-62
2021/12/09 11:26:25;;;;;;;44.20;25.57;;;5.10;87.60;;;;;;5052241;28;20425;-62
2021/12/09 11:29:24;;;;;;;46.43;26.47;;;5.10;87.60;;;;;;5050494;28;20036;-62
2021/12/09 11:32:06;;;;;;;48.20;27.17;;;5.10;87.80;;;;;;5048697;28;20390;-62
2021/12/09 11:34:43;;;;;;;49.57;27.70;;;5.00;88.10;;;;;;5053212;28;20099;-62
2021/12/09 11:37:33;;;;;;;49.23;29.57;;;5.20;87.90;;;;;;5047965;28;20034;-62
2021/12/09 11:40:19;;;;;;;43.57;24.57;;;5.20;87.10;;;;;;5050753;28;20036;-62
2021/12/09 11:42:50;;;;;;;47.37;25.90;;;5.10;86.20;;;;;;5045780;28;20065;-62
2021/12/09 11:45:20;;;;;;;46.50;27.97;;;5.00;85.50;;;;;;5050015;28;20028;-62
2021/12/09 11:47:48;;;;;;;51.97;26.70;;;5.10;86.00;;;;;;5055930;28;20427;-62
2021/12/09 11:50:24;;;;;;;52.93;29.93;;;5.10;86.90;;;;;;5051701;28;20059;-62
2021/12/09 11:52:52;;;;;;;55.00;30.73;;;5.10;87.50;;;;;;5052027;28;20033;-62
2021/12/09 11:55:22;;;;;;;54.77;28.50;;;5.10;86.90;;;;;;5053060;28;20025;-62
2021/12/09 11:57:56;;;;;;;58.13;30.20;;;5.10;85.90;;;;;;5056812;28;20047;-62
2021/12/09 12:12:21;;;;;;;57.70;31.23;;;;;;;;;;5053505;28;20509;-62
2021/12/09 12:14:49;;;;;;;56.95;32.28;;;6.20;93.60;;;;;;5040773;28;20026;-62
2021/12/09 12:17:24;;;;;;;58.23;32.53;;;;;;;;;;5046530;28;20033;-62
2021/12/09 12:20:13;;;;;;;59.50;32.87;;;6.40;85.90;;;;;;5041040;28;20045;-62
2021/12/09 12:35:13;;;;;;;56.20;32.53;;;5.90;95.00;;;;;;5051456;28;20044;-63
2021/12/09 12:38:19;;;;;;;56.30;33.53;;;5.90;96.40;;;;;;5049297;28;20411;-62
2021/12/09 12:40:56;;;;;;;57.07;32.97;;;5.80;95.00;;;;;;5050032;28;20025;-62
2021/12/09 12:43:37;;;;;;;64.43;35.63;;;5.80;96.70;;;;;;5043829;28;20021;-62
2021/12/09 12:49:06;;;;;;;57.90;33.47;;;5.70;94.60;;;;;;5052520;28;20033;-62
2021/12/09 12:51:51;;;;;;;64.73;36.17;;;5.80;94.10;;;;;;5047902;28;20410;-63
2021/12/09 12:54:50;;;;;;;54.47;33.43;;;5.80;94.90;;;;;;5044345;28;20029;-63
2021/12/09 12:57:17;;;;;;;58.77;33.97;;;6.00;94.80;;;;;;5049509;28;20036;-64
2021/12/09 12:59:45;;;;;;;57.13;34.13;;;5.90;94.70;;;;;;5049155;28;20029;-62
2021/12/09 13:05:25;;;;;;;61.67;35.50;;;6.20;95.40;;;;;;5045192;28;20049;-63
2021/12/09 13:16:11;;;;;;;59.23;34.97;;;6.30;95.10;;;;;;5040088;28;20029;-61
2021/12/09 13:21:43;;;;;;;58.28;33.72;;;6.00;95.00;;;;;;5047310;28;20049;-62
2021/12/09 13:24:41;;;;;;;58.90;35.67;;;5.90;95.00;;;;;;5048081;28;20037;-62
2021/12/09 13:27:10;;;;;;;61.67;36.67;;;5.70;94.30;;;;;;5050557;28;20013;-62
2021/12/09 13:32:29;;;;;;;57.77;34.67;;;5.50;96.10;;;;;;5039327;28;20034;-62
2021/12/09 13:35:08;;;;;;;54.37;32.60;;;5.50;96.20;;;;;;5052015;28;20394;-62
2021/12/09 13:40:40;;;;;;;61.67;35.67;;;5.60;95.50;;;;;;5041507;28;20037;-62
2021/12/09 13:48:56;;;;;;;66.10;36.07;;;5.70;96.60;;;;;;5044322;28;20037;-62